Time,TemperatureF,DewpointF,PressureIn,WindDirection,WindDirectionDegrees,WindSpeedMPH,WindSpeedGustMPH,Humidity,HourlyPrecipIn,Conditions,Clouds,dailyrainin,SoftwareType,DateUTC
2013-04-24 01:42:00,40.7,40.7,30.00,NW,326,4.0,9.4,100,0.05,n/a,n/a,-99.99,Henriksen +1-Wire,2013-04-24 05:42:00,
2013-04-24 01:44:00,40.9,40.9,30.00,NNW,330,5.3,9.4,100,0.05,n/a,n/a,-99.99,Henriksen +1-Wire,2013-04-24 05:44:00,
2013-04-24 01:50:00,41.2,41.2,29.99,NW,324,3.9,9.7,100,0.05,n/a,n/a,-99.99,Henriksen +1-Wire,2013-04-24 05:50:00,
2013-04-24 01:56:00,41.4,41.4,29.99,NW,326,2.9,10.7,100,0.05,n/a,n/a,-99.99,Henriksen +1-Wire,2013-04-24 05:56:00,
2013-04-24 02:00:00,41.5,41.5,29.98,NW,323,2.5,10.7,100,0.05,n/a,n/a,-99.99,Henriksen +1-Wire,2013-04-24 06:00:00,
2013-04-24 02:06:00,41.5,41.5,29.97,NNW,331,4.8,9.3,100,0.05,n/a,n/a,-99.99,Henriksen +1-Wire,2013-04-24 06:06:00,
2013-04-24 02:12:00,41.6,41.6,29.97,NNW,339,5.7,9.3,100,0.05,n/a,n/a,-99.99,Henriksen +1-Wire,2013-04-24 06:12:00,
2013-04-24 02:18:00,41.7,41.7,29.96,NNW,327,7.0,9.9,100,0.03,n/a,n/a,-99.99,Henriksen +1-Wire,2013-04-24 06:18:00,
2013-04-24 02:24:00,41.8,41.8,29.96,NW,322,4.0,10.0,100,0.03,n/a,n/a,-99.99,Henriksen +1-Wire,2013-04-24 06:24:00,
2013-04-24 02:30:00,41.8,41.8,29.96,NW,324,5.5,9.0,100,0.03,n/a,n/a,-99.99,Henriksen +1-Wire,2013-04-24 06:30:00,
2013-04-24 02:36:00,41.9,41.9,29.95,NNW,327,2.9,9.0,100,0.03,n/a,n/a,-99.99,Henriksen +1-Wire,2013-04-24 06:36:00,
2013-04-24 02:42:00,41.9,41.9,29.95,NW,319,3.4,7.8,100,0.00,n/a,n/a,-99.99,Henriksen +1-Wire,2013-04-24 06:42:00,
2013-04-24 02:48:00,42.0,42.0,29.95,NW,321,4.6,8.8,100,0.00,n/a,n/a,-99.99,Henriksen +1-Wire,2013-04-24 06:48:00,
2013-04-24 02:54:00,42.1,42.1,29.95,NW,307,3.9,10.9,100,0.00,n/a,n/a,-99.99,Henriksen +1-Wire,2013-04-24 06:54:00,
2013-04-24 03:00:00,42.2,42.2,29.95,NW,321,4.4,11.2,100,0.00,n/a,n/a,-99.99,Henriksen +1-Wire,2013-04-24 07:00:00,
2013-04-24 03:06:00,42.3,42.3,29.95,NW,325,3.9,11.2,100,0.00,n/a,n/a,-99.99,Henriksen +1-Wire,2013-04-24 07:06:00,
2013-04-24 03:12:00,42.3,42.3,29.95,NW,312,3.5,9.4,100,0.00,n/a,n/a,-99.99,Henriksen +1-Wire,2013-04-24 07:12:00,
2013-04-24 03:18:00,42.3,42.3,29.95,NW,316,4.2,8.9,100,0.00,n/a,n/a,-99.99,Henriksen +1-Wire,2013-04-24 07:18:00,
2013-04-24 03:24:00,42.3,42.3,29.95,WNW,303,3.7,9.5,100,0.00,n/a,n/a,-99.99,Henriksen +1-Wire,2013-04-24 07:24:00,
2013-04-24 03:30:00,42.3,42.3,29.95,NW,308,4.9,11.1,100,0.00,n/a,n/a,-99.99,Henriksen +1-Wire,2013-04-24 07:30:00,
2013-04-24 03:36:00,42.3,42.3,29.95,NW,320,3.0,11.1,100,0.00,n/a,n/a,-99.99,Henriksen +1-Wire,2013-04-24 07:36:00,
2013-04-24 03:42:00,42.3,42.3,29.94,NW,320,5.9,9.0,100,0.00,n/a,n/a,-99.99,Henriksen +1-Wire,2013-04-24 07:42:00,
2013-04-24 03:48:00,42.3,42.3,29.94,NW,322,4.9,8.9,100,0.00,n/a,n/a,-99.99,Henriksen +1-Wire,2013-04-24 07:48:00,
2013-04-24 03:54:00,42.3,42.3,29.95,NW,319,3.4,8.9,100,0.00,n/a,n/a,-99.99,Henriksen +1-Wire,2013-04-24 07:54:00,
2013-04-24 04:00:00,42.3,42.3,29.95,NW,325,5.1,9.0,100,0.00,n/a,n/a,-99.99,Henriksen +1-Wire,2013-04-24 08:00:00,
2013-04-24 04:06:00,42.3,42.3,29.95,NW,311,5.7,11.8,100,0.00,n/a,n/a,-99.99,Henriksen +1-Wire,2013-04-24 08:06:00,
2013-04-24 04:12:00,42.3,42.3,29.95,NW,325,5.0,9.4,100,0.00,n/a,n/a,-99.99,Henriksen +1-Wire,2013-04-24 08:12:00,
2013-04-24 04:18:00,42.3,42.3,29.94,NW,312,5.3,9.4,100,0.00,n/a,n/a,-99.99,Henriksen +1-Wire,2013-04-24 08:18:00,
2013-04-24 04:24:00,42.3,42.3,29.94,NW,315,4.8,9.4,100,0.00,n/a,n/a,-99.99,Henriksen +1-Wire,2013-04-24 08:24:00,
2013-04-24 04:30:00,42.3,42.3,29.94,NW,317,5.2,9.0,100,0.00,n/a,n/a,-99.99,Henriksen +1-Wire,2013-04-24 08:30:00,
2013-04-24 04:36:00,42.3,42.3,29.94,NW,314,3.9,9.1,100,0.00,n/a,n/a,-99.99,Henriksen +1-Wire,2013-04-24 08:36:00,
2013-04-24 04:42:00,42.3,42.3,29.93,WNW,291,3.3,11.5,100,0.00,n/a,n/a,-99.99,Henriksen +1-Wire,2013-04-24 08:42:00,
2013-04-24 04:48:00,42.3,42.3,29.93,NW,316,3.3,11.6,100,0.00,n/a,n/a,-99.99,Henriksen +1-Wire,2013-04-24 08:48:00,
2013-04-24 04:54:00,42.3,42.3,29.93,NW,305,6.3,11.9,100,0.00,n/a,n/a,-99.99,Henriksen +1-Wire,2013-04-24 08:54:00,
2013-04-24 05:00:00,42.3,42.3,29.93,NW,315,4.0,10.9,100,0.00,n/a,n/a,-99.99,Henriksen +1-Wire,2013-04-24 09:00:00,
2013-04-24 05:06:00,42.3,42.3,29.93,NW,311,4.4,9.4,100,0.00,n/a,n/a,-99.99,Henriksen +1-Wire,2013-04-24 09:06:00,
2013-04-24 05:12:00,42.3,42.3,29.93,NW,318,3.1,10.2,100,0.00,n/a,n/a,-99.99,Henriksen +1-Wire,2013-04-24 09:12:00,
2013-04-24 05:18:00,42.3,42.3,29.92,NW,323,3.6,9.0,100,0.00,n/a,n/a,-99.99,Henriksen +1-Wire,2013-04-24 09:18:00,
2013-04-24 05:24:00,42.5,42.5,29.92,NW,321,4.0,7.1,100,0.00,n/a,n/a,-99.99,Henriksen +1-Wire,2013-04-24 09:24:00,
2013-04-24 05:30:00,42.6,42.6,29.92,NW,313,6.1,11.4,100,0.00,n/a,n/a,-99.99,Henriksen +1-Wire,2013-04-24 09:30:00,
2013-04-24 05:36:00,42.6,42.6,29.92,NW,314,3.3,11.4,100,0.00,n/a,n/a,-99.99,Henriksen +1-Wire,2013-04-24 09:36:00,
2013-04-24 05:42:00,42.7,42.7,29.92,NW,308,4.4,9.3,100,0.00,n/a,n/a,-99.99,Henriksen +1-Wire,2013-04-24 09:42:00,
2013-04-24 05:48:00,42.7,42.7,29.93,NW,304,2.8,9.3,100,0.00,n/a,n/a,-99.99,Henriksen +1-Wire,2013-04-24 09:48:00,
2013-04-24 05:54:00,42.7,42.7,29.93,WNW,303,4.3,7.4,100,0.00,n/a,n/a,-99.99,Henriksen +1-Wire,2013-04-24 09:54:00,
2013-04-24 06:00:00,42.7,42.7,29.92,WNW,298,3.3,7.4,100,0.00,n/a,n/a,-99.99,Henriksen +1-Wire,2013-04-24 10:00:00,
2013-04-24 06:06:00,42.8,42.8,29.92,WNW,294,4.5,8.9,100,0.00,n/a,n/a,-99.99,Henriksen +1-Wire,2013-04-24 10:06:00,
2013-04-24 06:12:00,42.8,42.8,29.92,WNW,299,3.5,8.9,100,0.00,n/a,n/a,-99.99,Henriksen +1-Wire,2013-04-24 10:12:00,
2013-04-24 06:18:00,42.9,42.9,29.92,WNW,297,5.5,10.2,100,0.00,n/a,n/a,-99.99,Henriksen +1-Wire,2013-04-24 10:18:00,
2013-04-24 06:24:00,43.0,43.0,29.93,NW,317,3.9,10.2,100,0.00,n/a,n/a,-99.99,Henriksen +1-Wire,2013-04-24 10:24:00,
2013-04-24 06:30:00,43.1,43.1,29.93,WNW,302,3.3,9.4,100,0.00,n/a,n/a,-99.99,Henriksen +1-Wire,2013-04-24 10:30:00,
2013-04-24 06:36:00,43.1,43.1,29.93,WNW,288,3.2,9.4,100,0.00,n/a,n/a,-99.99,Henriksen +1-Wire,2013-04-24 10:36:00,
2013-04-24 06:42:00,43.1,43.1,29.93,West,275,3.0,6.9,100,0.00,n/a,n/a,-99.99,Henriksen +1-Wire,2013-04-24 10:42:00,
2013-04-24 06:48:00,43.1,43.1,29.93,WNW,284,5.1,8.7,100,0.00,n/a,n/a,-99.99,Henriksen +1-Wire,2013-04-24 10:48:00,
2013-04-24 06:54:00,43.2,43.2,29.93,WNW,293,4.3,11.1,100,0.00,n/a,n/a,-99.99,Henriksen +1-Wire,2013-04-24 10:54:00,
2013-04-24 07:00:00,43.2,43.2,29.93,WNW,288,3.3,11.1,100,0.00,n/a,n/a,-99.99,Henriksen +1-Wire,2013-04-24 11:00:00,
2013-04-24 07:06:00,43.3,43.3,29.93,WNW,289,3.7,9.1,100,0.00,n/a,n/a,-99.99,Henriksen +1-Wire,2013-04-24 11:06:00,
2013-04-24 07:12:00,43.4,43.4,29.92,WNW,293,4.3,9.2,100,0.00,n/a,n/a,-99.99,Henriksen +1-Wire,2013-04-24 11:12:00,
2013-04-24 07:18:00,43.5,43.5,29.92,WNW,298,4.5,9.2,100,0.00,n/a,n/a,-99.99,Henriksen +1-Wire,2013-04-24 11:18:00,
2013-04-24 07:24:00,43.6,43.6,29.92,WNW,296,2.9,11.6,100,0.00,n/a,n/a,-99.99,Henriksen +1-Wire,2013-04-24 11:24:00,
2013-04-24 07:30:00,43.7,43.7,29.92,WNW,300,2.4,10.0,100,0.00,n/a,n/a,-99.99,Henriksen +1-Wire,2013-04-24 11:30:00,
2013-04-24 07:36:00,43.9,43.9,29.92,NW,304,4.8,10.9,100,0.00,n/a,n/a,-99.99,Henriksen +1-Wire,2013-04-24 11:36:00,
2013-04-24 07:42:00,44.1,44.1,29.92,NW,320,3.7,10.9,100,0.00,n/a,n/a,-99.99,Henriksen +1-Wire,2013-04-24 11:42:00,
2013-04-24 07:48:00,44.2,44.2,29.91,WNW,300,3.2,7.3,100,0.00,n/a,n/a,-99.99,Henriksen +1-Wire,2013-04-24 11:48:00,
2013-04-24 07:54:00,44.5,44.5,29.91,NW,305,3.6,10.5,100,0.00,n/a,n/a,-99.99,Henriksen +1-Wire,2013-04-24 11:54:00,
2013-04-24 08:00:00,44.7,44.7,29.91,NW,305,4.0,10.5,100,0.00,n/a,n/a,-99.99,Henriksen +1-Wire,2013-04-24 12:00:00,
2013-04-24 08:06:00,44.9,44.9,29.90,NW,322,5.1,8.6,100,0.00,n/a,n/a,-99.99,Henriksen +1-Wire,2013-04-24 12:06:00,
2013-04-24 08:12:00,45.2,45.2,29.90,NW,322,5.0,8.6,100,0.00,n/a,n/a,-99.99,Henriksen +1-Wire,2013-04-24 12:12:00,
2013-04-24 08:18:00,45.5,45.5,29.90,NW,312,3.5,7.5,100,0.00,n/a,n/a,-99.99,Henriksen +1-Wire,2013-04-24 12:18:00,
2013-04-24 08:24:00,45.7,45.7,29.90,WNW,295,3.3,7.7,100,0.00,n/a,n/a,-99.99,Henriksen +1-Wire,2013-04-24 12:24:00,
2013-04-24 08:30:00,45.9,45.9,29.90,WNW,301,3.5,9.6,100,0.00,n/a,n/a,-99.99,Henriksen +1-Wire,2013-04-24 12:30:00,
2013-04-24 08:36:00,46.3,46.3,29.90,NW,310,4.4,9.6,100,0.00,n/a,n/a,-99.99,Henriksen +1-Wire,2013-04-24 12:36:00,
2013-04-24 08:42:00,46.6,46.6,29.90,NW,324,4.1,9.7,100,0.00,n/a,n/a,-99.99,Henriksen +1-Wire,2013-04-24 12:42:00,
2013-04-24 08:48:00,47.3,47.3,29.90,WNW,291,5.0,9.7,100,0.00,n/a,n/a,-99.99,Henriksen +1-Wire,2013-04-24 12:48:00,
2013-04-24 08:54:00,48.0,48.0,29.90,NW,310,5.6,9.1,100,0.00,n/a,n/a,-99.99,Henriksen +1-Wire,2013-04-24 12:54:00,
2013-04-24 09:00:00,48.3,48.3,29.90,WNW,292,3.7,9.3,100,0.00,n/a,n/a,-99.99,Henriksen +1-Wire,2013-04-24 13:00:00,
2013-04-24 09:06:00,48.4,48.4,29.90,WNW,291,2.1,9.7,100,0.00,n/a,n/a,-99.99,Henriksen +1-Wire,2013-04-24 13:06:00,
2013-04-24 09:12:00,48.4,48.4,29.91,NW,309,4.8,8.0,100,0.00,n/a,n/a,-99.99,Henriksen +1-Wire,2013-04-24 13:12:00,
2013-04-24 09:18:00,48.6,48.6,29.91,WNW,297,5.2,11.8,100,0.00,n/a,n/a,-99.99,Henriksen +1-Wire,2013-04-24 13:18:00,
2013-04-24 09:24:00,49.1,49.1,29.90,WNW,290,3.8,11.8,100,0.00,n/a,n/a,-99.99,Henriksen +1-Wire,2013-04-24 13:24:00,
2013-04-24 09:30:00,49.4,49.4,29.90,WNW,295,3.3,10.0,100,0.00,n/a,n/a,-99.99,Henriksen +1-Wire,2013-04-24 13:30:00,
2013-04-24 09:36:00,49.9,49.9,29.90,NW,309,3.9,10.0,100,0.00,n/a,n/a,-99.99,Henriksen +1-Wire,2013-04-24 13:36:00,
2013-04-24 09:42:00,50.3,50.3,29.90,NW,316,4.4,8.6,100,0.00,n/a,n/a,-99.99,Henriksen +1-Wire,2013-04-24 13:42:00,
2013-04-24 09:48:00,50.9,50.9,29.90,NW,325,4.3,8.6,100,0.00,n/a,n/a,-99.99,Henriksen +1-Wire,2013-04-24 13:48:00,
2013-04-24 09:54:00,51.6,51.6,29.90,NW,313,4.4,8.8,100,0.00,n/a,n/a,-99.99,Henriksen +1-Wire,2013-04-24 13:54:00,
2013-04-24 10:00:00,51.8,51.8,29.89,NW,313,4.2,9.6,100,0.00,n/a,n/a,-99.99,Henriksen +1-Wire,2013-04-24 14:00:00,
2013-04-24 10:06:00,51.7,51.7,29.89,NW,311,4.9,9.6,100,0.00,n/a,n/a,-99.99,Henriksen +1-Wire,2013-04-24 14:06:00,
2013-04-24 10:12:00,51.8,51.8,29.89,NNW,327,4.9,7.6,100,0.00,n/a,n/a,-99.99,Henriksen +1-Wire,2013-04-24 14:12:00,
2013-04-24 10:18:00,52.3,52.3,29.89,NW,318,3.7,7.5,100,0.00,n/a,n/a,-99.99,Henriksen +1-Wire,2013-04-24 14:18:00,
2013-04-24 10:24:00,52.5,52.5,29.88,NW,305,1.8,7.5,100,0.00,n/a,n/a,-99.99,Henriksen +1-Wire,2013-04-24 14:24:00,
2013-04-24 10:30:00,53.2,53.2,29.88,NW,314,2.0,5.8,100,0.00,n/a,n/a,-99.99,Henriksen +1-Wire,2013-04-24 14:30:00,
2013-04-24 10:36:00,53.8,53.8,29.88,NW,316,1.9,5.1,100,0.00,n/a,n/a,-99.99,Henriksen +1-Wire,2013-04-24 14:36:00,
2013-04-24 10:42:00,53.9,53.9,29.87,NW,324,3.7,8.7,100,0.00,n/a,n/a,-99.99,Henriksen +1-Wire,2013-04-24 14:42:00,
2013-04-24 10:48:00,54.0,54.0,29.87,NNW,327,3.8,8.7,100,0.00,n/a,n/a,-99.99,Henriksen +1-Wire,2013-04-24 14:48:00,
2013-04-24 10:54:00,54.3,54.3,29.87,NW,313,2.3,6.4,100,0.00,n/a,n/a,-99.99,Henriksen +1-Wire,2013-04-24 14:54:00,
2013-04-24 11:00:00,54.8,54.8,29.87,NW,315,1.8,6.4,100,0.00,n/a,n/a,-99.99,Henriksen +1-Wire,2013-04-24 15:00:00,
2013-04-24 11:10:00,55.6,55.6,29.86,NNW,327,2.8,5.3,100,0.00,n/a,n/a,-99.99,Henriksen +1-Wire,2013-04-24 15:10:00,
2013-04-24 11:16:00,56.2,56.2,29.86,NW,321,3.5,5.7,100,0.00,n/a,n/a,-99.99,Henriksen +1-Wire,2013-04-24 15:16:00,
2013-04-24 11:22:00,56.2,56.2,29.86,NW,317,1.5,6.4,100,0.00,n/a,n/a,-99.99,Henriksen +1-Wire,2013-04-24 15:22:00,
2013-04-24 11:28:00,56.9,56.9,29.86,WNW,300,2.7,4.8,100,0.00,n/a,n/a,-99.99,Henriksen +1-Wire,2013-04-24 15:28:00,
2013-04-24 11:34:00,56.7,56.7,29.86,NW,321,2.0,6.4,100,0.00,n/a,n/a,-99.99,Henriksen +1-Wire,2013-04-24 15:34:00,
2013-04-24 11:40:00,57.4,54.5,29.86,NW,324,2.0,6.4,90,0.00,n/a,n/a,-99.99,Henriksen +1-Wire,2013-04-24 15:40:00,
2013-04-24 11:46:00,58.4,58.1,29.86,WNW,301,3.7,5.8,98,0.00,n/a,n/a,-99.99,Henriksen +1-Wire,2013-04-24 15:46:00,
2013-04-24 11:52:00,58.7,48.9,29.86,WSW,240,2.2,5.8,69,0.00,n/a,n/a,-99.99,Henriksen +1-Wire,2013-04-24 15:52:00,
2013-04-24 11:58:00,59.0,58.2,29.86,WSW,256,2.8,5.5,97,0.00,n/a,n/a,-99.99,Henriksen +1-Wire,2013-04-24 15:58:00,
2013-04-24 12:04:00,60.4,56.1,29.85,SSE,153,2.1,6.0,85,0.00,n/a,n/a,-99.99,Henriksen +1-Wire,2013-04-24 16:04:00,
2013-04-24 12:10:00,60.6,58.6,29.85,West,262,3.1,6.6,93,0.00,n/a,n/a,-99.99,Henriksen +1-Wire,2013-04-24 16:10:00,
2013-04-24 12:16:00,60.7,60.5,29.85,WSW,241,1.5,6.6,99,0.00,n/a,n/a,-99.99,Henriksen +1-Wire,2013-04-24 16:16:00,
2013-04-24 15:28:00,67.2,67.2,29.74,ESE,114,5.4,8.3,100,0.00,n/a,n/a,-99.99,Henriksen +1-Wire,2013-04-24 19:28:00,
2013-04-24 15:34:00,71.8,71.8,29.74,SSE,164,6.1,9.9,100,0.00,n/a,n/a,-99.99,Henriksen +1-Wire,2013-04-24 19:34:00,
2013-04-24 15:40:00,72.7,72.7,29.75,SSE,156,5.3,12.8,100,0.00,n/a,n/a,-99.99,Henriksen +1-Wire,2013-04-24 19:40:00,
2013-04-24 15:46:00,73.2,73.2,29.75,ESE,114,5.8,12.8,100,0.00,n/a,n/a,-99.99,Henriksen +1-Wire,2013-04-24 19:46:00,
2013-04-24 15:52:00,73.9,73.9,29.75,ESE,113,5.0,9.8,100,0.00,n/a,n/a,-99.99,Henriksen +1-Wire,2013-04-24 19:52:00,
2013-04-24 21:34:00,59.5,59.5,29.79,SE,126,4.6,10.4,100,0.00,n/a,n/a,-99.99,Henriksen +1-Wire,2013-04-25 01:34:00,
2013-04-24 21:40:00,59.2,59.2,29.79,SE,131,4.9,10.4,100,0.00,n/a,n/a,-99.99,Henriksen +1-Wire,2013-04-25 01:40:00,
2013-04-24 21:46:00,59.0,59.0,29.79,ESE,121,4.0,8.1,100,0.00,n/a,n/a,-99.99,Henriksen +1-Wire,2013-04-25 01:46:00,
2013-04-24 21:52:00,58.9,58.9,29.80,ESE,114,5.4,8.3,100,0.00,n/a,n/a,-99.99,Henriksen +1-Wire,2013-04-25 01:52:00,
2013-04-24 21:58:00,58.9,58.9,29.80,SE,132,4.3,11.0,100,0.00,n/a,n/a,-99.99,Henriksen +1-Wire,2013-04-25 01:58:00,
2013-04-24 22:04:00,58.9,58.9,29.80,SE,127,4.8,8.9,100,0.00,n/a,n/a,-99.99,Henriksen +1-Wire,2013-04-25 02:04:00,
2013-04-24 22:10:00,58.8,58.8,29.80,SE,129,8.3,13.2,100,0.00,n/a,n/a,-99.99,Henriksen +1-Wire,2013-04-25 02:10:00,
2013-04-24 22:16:00,58.7,58.7,29.80,SE,128,5.7,12.8,100,0.00,n/a,n/a,-99.99,Henriksen +1-Wire,2013-04-25 02:16:00,
2013-04-24 22:22:00,58.4,58.4,29.79,SE,146,7.3,10.0,100,0.00,n/a,n/a,-99.99,Henriksen +1-Wire,2013-04-25 02:22:00,
2013-04-24 22:28:00,58.2,58.2,29.79,SSE,153,7.4,11.5,100,0.00,n/a,n/a,-99.99,Henriksen +1-Wire,2013-04-25 02:28:00,
2013-04-24 22:34:00,58.0,58.0,29.79,SSE,161,7.5,13.1,100,0.00,n/a,n/a,-99.99,Henriksen +1-Wire,2013-04-25 02:34:00,
2013-04-24 22:40:00,57.7,57.7,29.78,SSE,156,4.7,13.6,100,0.00,n/a,n/a,-99.99,Henriksen +1-Wire,2013-04-25 02:40:00,
2013-04-24 22:46:00,57.4,57.4,29.78,SSE,152,5.4,10.8,100,0.00,n/a,n/a,-99.99,Henriksen +1-Wire,2013-04-25 02:46:00,
2013-04-24 22:52:00,57.2,57.2,29.78,ESE,110,7.0,10.8,100,0.00,n/a,n/a,-99.99,Henriksen +1-Wire,2013-04-25 02:52:00,
2013-04-24 22:58:00,57.1,57.1,29.78,ESE,119,7.2,15.7,100,0.00,n/a,n/a,-99.99,Henriksen +1-Wire,2013-04-25 02:58:00,
2013-04-24 23:04:00,57.0,57.0,29.78,SE,136,6.9,12.8,100,0.00,n/a,n/a,-99.99,Henriksen +1-Wire,2013-04-25 03:04:00,
2013-04-24 23:10:00,56.8,56.8,29.78,SSE,156,7.8,14.1,100,0.00,n/a,n/a,-99.99,Henriksen +1-Wire,2013-04-25 03:10:00,
2013-04-24 23:16:00,56.6,56.6,29.78,SSE,156,7.2,14.1,100,0.00,n/a,n/a,-99.99,Henriksen +1-Wire,2013-04-25 03:16:00,
2013-04-24 23:22:00,56.5,56.5,29.79,SSE,161,8.3,16.7,100,0.00,n/a,n/a,-99.99,Henriksen +1-Wire,2013-04-25 03:22:00,
2013-04-24 23:28:00,56.2,56.2,29.78,SSE,150,4.3,14.1,100,0.00,n/a,n/a,-99.99,Henriksen +1-Wire,2013-04-25 03:28:00,
2013-04-24 23:34:00,55.8,55.8,29.78,SE,128,4.8,9.7,100,0.00,n/a,n/a,-99.99,Henriksen +1-Wire,2013-04-25 03:34:00,
2013-04-24 23:40:00,55.5,55.5,29.79,SE,127,7.6,13.0,100,0.00,n/a,n/a,-99.99,Henriksen +1-Wire,2013-04-25 03:40:00,
2013-04-24 23:46:00,55.3,55.3,29.79,SSE,159,9.3,13.9,100,0.00,n/a,n/a,-99.99,Henriksen +1-Wire,2013-04-25 03:46:00,
2013-04-24 23:52:00,55.2,55.2,29.80,SSE,158,6.0,14.8,100,0.00,n/a,n/a,-99.99,Henriksen +1-Wire,2013-04-25 03:52:00,
2013-04-24 23:58:00,54.9,54.9,29.80,SSE,165,8.3,14.4,100,0.00,n/a,n/a,-99.99,Henriksen +1-Wire,2013-04-25 03:58:00,